Time;durP1;ratioP1;P1;durP2;ratioP2;P2;SDS_P1;SDS_P2;PMS_P1;PMS_P2;Temp;Humidity;BMP_temperature;BMP_pressure;BME280_temperature;BME280_humidity;BME280_pressure;Samples;Min_cycle;Max_cycle;Signal;HPM_P1;HPM_P2
2023/01/28 00:02:12;;;;;;;5.60;4.50;;;5.40;99.90;;;;;;5078471;28;20240;-66
2023/01/28 00:04:39;;;;;;;16.50;6.40;;;5.40;99.90;;;;;;5074349;28;20353;-66
2023/01/28 00:07:04;;;;;;;5.63;3.63;;;5.40;99.90;;;;;;5074115;28;21157;-66
2023/01/28 00:09:30;;;;;;;4.00;3.60;;;5.40;99.90;;;;;;5079771;28;20431;-66
2023/01/28 00:11:55;;;;;;;5.47;4.43;;;5.40;99.90;;;;;;5073036;28;20351;-66
2023/01/28 00:14:21;;;;;;;4.23;3.80;;;5.40;99.90;;;;;;5071780;28;20178;-65
2023/01/28 00:16:46;;;;;;;6.57;4.60;;;5.40;99.90;;;;;;5076482;28;20985;-66
2023/01/28 00:19:12;;;;;;;5.97;4.70;;;5.40;99.90;;;;;;5076801;28;20258;-66
2023/01/28 00:21:38;;;;;;;4.67;4.10;;;5.40;99.90;;;;;;5077250;28;20547;-66
2023/01/28 00:24:05;;;;;;;5.10;4.50;;;5.40;99.90;;;;;;5077154;28;20549;-66
2023/01/28 00:26:31;;;;;;;5.00;4.17;;;5.40;99.90;;;;;;5078625;28;20281;-66
2023/01/28 00:28:57;;;;;;;4.40;3.67;;;5.40;99.90;;;;;;5060582;28;20585;-66
2023/01/28 00:31:26;;;;;;;4.20;3.47;;;5.40;99.90;;;;;;5076959;28;20250;-66
2023/01/28 00:33:53;;;;;;;5.53;3.83;;;5.40;99.90;;;;;;5077858;28;20175;-66
2023/01/28 00:36:20;;;;;;;5.40;3.80;;;5.40;99.90;;;;;;5078453;28;20810;-66
2023/01/28 00:38:54;;;;;;;4.53;3.50;;;5.40;99.90;;;;;;5078734;28;20415;-66
2023/01/28 00:41:22;;;;;;;4.47;3.73;;;5.40;99.90;;;;;;5074276;28;20455;-66
2023/01/28 00:43:48;;;;;;;5.43;4.30;;;5.40;99.90;;;;;;5075836;28;20480;-66
2023/01/28 00:46:15;;;;;;;4.33;3.60;;;5.40;99.90;;;;;;5074739;28;20480;-66
2023/01/28 00:48:42;;;;;;;4.90;4.00;;;5.40;99.90;;;;;;5071102;28;20468;-66
2023/01/28 00:51:09;;;;;;;5.60;4.03;;;5.40;99.90;;;;;;5077736;28;20420;-65
2023/01/28 00:53:35;;;;;;;5.27;4.07;;;5.40;99.90;;;;;;5077848;28;20451;-65
2023/01/28 00:56:02;;;;;;;4.13;3.70;;;5.40;99.90;;;;;;5074386;28;20501;-65
2023/01/28 00:58:27;;;;;;;5.13;3.67;;;5.40;99.90;;;;;;5077128;28;20447;-65
2023/01/28 01:00:53;;;;;;;6.43;4.10;;;5.40;99.90;;;;;;5079746;28;20903;-65
2023/01/28 01:03:19;;;;;;;6.23;3.67;;;5.40;99.90;;;;;;5059247;28;20174;-65
2023/01/28 01:05:45;;;;;;;4.67;3.90;;;5.40;99.90;;;;;;5075367;28;20210;-65
2023/01/28 01:08:11;;;;;;;3.93;3.53;;;5.40;99.90;;;;;;5075183;28;20461;-65
2023/01/28 01:10:37;;;;;;;4.67;3.50;;;5.40;99.90;;;;;;5074029;28;20877;-65
2023/01/28 01:13:04;;;;;;;3.93;3.20;;;5.40;99.90;;;;;;5068602;28;20460;-65
2023/01/28 01:15:30;;;;;;;5.10;3.50;;;5.40;99.90;;;;;;5077543;28;20797;-65
2023/01/28 01:17:57;;;;;;;4.87;3.70;;;5.40;99.90;;;;;;5067952;28;20417;-65
2023/01/28 01:20:25;;;;;;;4.73;3.40;;;5.40;99.90;;;;;;5071932;28;20578;-66
2023/01/28 01:22:52;;;;;;;4.27;3.67;;;5.40;99.90;;;;;;5073344;28;20466;-66
2023/01/28 01:25:18;;;;;;;5.83;3.97;;;5.40;99.90;;;;;;5075598;28;21109;-65
2023/01/28 01:27:46;;;;;;;4.70;3.60;;;5.40;99.90;;;;;;5076714;28;20500;-65
2023/01/28 01:30:13;;;;;;;4.97;4.17;;;5.40;99.90;;;;;;5075659;28;20423;-65
2023/01/28 01:32:39;;;;;;;4.33;3.73;;;5.40;99.90;;;;;;5074936;28;20424;-66
2023/01/28 01:35:07;;;;;;;5.87;3.97;;;5.40;99.90;;;;;;5078999;28;20439;-66
2023/01/28 01:37:33;;;;;;;5.13;4.03;;;5.40;99.90;;;;;;5075842;28;21005;-66
2023/01/28 01:40:00;;;;;;;4.60;4.10;;;5.40;99.90;;;;;;5075148;28;20524;-66
2023/01/28 01:42:27;;;;;;;5.03;3.70;;;5.40;99.90;;;;;;5072173;28;20968;-66
2023/01/28 01:45:06;;;;;;;4.50;3.80;;;5.40;99.90;;;;;;5079120;28;20437;-66
2023/01/28 01:47:47;;;;;;;6.50;4.30;;;5.40;99.90;;;;;;5068207;28;20800;-65
2023/01/28 01:50:30;;;;;;;5.30;4.17;;;5.40;99.90;;;;;;5076698;28;20449;-65
2023/01/28 01:53:01;;;;;;;5.77;4.63;;;5.40;99.90;;;;;;5072657;28;20447;-65
2023/01/28 01:55:30;;;;;;;5.00;4.40;;;5.40;99.90;;;;;;5069519;28;20497;-65
2023/01/28 01:57:59;;;;;;;4.43;4.03;;;5.40;99.90;;;;;;5074384;28;20989;-66
2023/01/28 02:00:24;;;;;;;6.60;4.30;;;5.40;99.90;;;;;;5069098;28;20472;-67
2023/01/28 02:02:51;;;;;;;5.30;4.03;;;5.40;99.90;;;;;;5075653;28;20416;-66
2023/01/28 02:05:19;;;;;;;6.83;4.07;;;5.40;99.90;;;;;;5071905;28;20188;-65
2023/01/28 02:07:47;;;;;;;5.17;4.40;;;5.40;99.90;;;;;;5073980;28;20474;-66
2023/01/28 02:10:13;;;;;;;8.60;4.63;;;5.40;99.90;;;;;;5073619;28;20424;-65
2023/01/28 02:12:46;;;;;;;5.07;4.37;;;5.40;99.90;;;;;;5077725;28;20589;-66
2023/01/28 02:15:17;;;;;;;5.43;3.97;;;5.40;99.90;;;;;;5055567;28;20428;-65
2023/01/28 02:17:43;;;;;;;5.23;4.53;;;5.40;99.90;;;;;;5071311;28;20444;-66
2023/01/28 02:20:12;;;;;;;5.63;4.37;;;5.40;99.90;;;;;;5076747;28;21045;-66
2023/01/28 02:23:04;;;;;;;5.00;4.40;;;5.40;99.90;;;;;;5073784;28;20935;-65
2023/01/28 02:25:59;;;;;;;6.37;4.50;;;5.40;99.90;;;;;;5076970;28;20477;-65
2023/01/28 02:28:54;;;;;;;8.30;5.57;;;5.40;99.90;;;;;;5075297;28;20481;-65
2023/01/28 02:31:41;;;;;;;5.70;4.53;;;5.40;99.90;;;;;;5066477;28;20432;-65
2023/01/28 02:34:23;;;;;;;6.13;4.73;;;5.40;99.90;;;;;;5067764;28;20797;-65
2023/01/28 02:37:01;;;;;;;8.27;5.67;;;5.40;99.90;;;;;;5075000;28;20451;-66
2023/01/28 02:39:34;;;;;;;6.00;4.73;;;5.40;99.90;;;;;;5056599;28;20471;-66
2023/01/28 02:42:34;;;;;;;7.17;5.30;;;5.40;99.90;;;;;;5072501;28;21611;-66
2023/01/28 02:44:59;;;;;;;6.50;4.90;;;5.40;99.90;;;;;;5059424;28;20445;-65
2023/01/28 02:50:20;;;;;;;6.50;5.10;;;5.40;99.90;;;;;;5073423;28;20198;-65
2023/01/28 02:56:06;;;;;;;6.50;4.77;;;5.40;99.90;;;;;;5073844;28;20534;-65
2023/01/28 02:58:43;;;;;;;6.03;4.70;;;5.40;99.90;;;;;;5080020;28;20424;-65
2023/01/28 03:01:09;;;;;;;4.93;4.03;;;5.40;99.90;;;;;;5076249;28;20475;-65
2023/01/28 03:03:58;;;;;;;8.20;5.30;;;5.40;99.90;;;;;;5080910;28;20941;-65
2023/01/28 03:06:34;;;;;;;4.10;3.70;;;5.40;99.90;;;;;;5081662;28;20562;-65
2023/01/28 03:09:21;;;;;;;5.73;4.97;;;5.40;99.90;;;;;;5079427;28;21091;-65
2023/01/28 03:37:30;;;;;;;5.33;4.37;;;5.40;99.90;;;;;;5077928;28;20462;-66
2023/01/28 03:40:01;;;;;;;6.40;4.70;;;5.40;99.90;;;;;;5081543;28;20456;-66
2023/01/28 03:42:26;;;;;;;5.03;4.53;;;5.40;99.90;;;;;;5073715;28;20428;-66
2023/01/28 03:44:52;;;;;;;5.03;4.53;;;5.40;99.90;;;;;;5076924;28;20940;-66
2023/01/28 03:47:26;;;;;;;5.10;4.40;;;5.40;99.90;;;;;;5078103;28;20199;-66
2023/01/28 03:49:54;;;;;;;6.07;5.20;;;5.40;99.90;;;;;;5061413;28;20181;-66
2023/01/28 03:52:23;;;;;;;5.87;4.70;;;5.40;99.90;;;;;;5078613;28;20517;-66
2023/01/28 03:54:50;;;;;;;6.10;4.70;;;5.40;99.90;;;;;;5079074;28;20456;-66
2023/01/28 03:57:18;;;;;;;7.20;4.70;;;5.40;99.90;;;;;;5077377;28;20479;-66
2023/01/28 03:59:43;;;;;;;6.23;4.73;;;5.40;99.90;;;;;;5077537;28;20798;-66
2023/01/28 04:02:10;;;;;;;5.97;4.83;;;5.40;99.90;;;;;;5075908;28;20421;-66
2023/01/28 04:04:39;;;;;;;6.50;5.17;;;5.40;99.90;;;;;;5080577;28;20166;-66
2023/01/28 04:07:07;;;;;;;6.60;4.93;;;5.40;99.90;;;;;;5075576;28;20866;-66
2023/01/28 04:09:34;;;;;;;5.20;4.30;;;5.40;99.90;;;;;;5079390;28;20523;-66
2023/01/28 04:12:00;;;;;;;6.90;5.20;;;5.40;99.90;;;;;;5078233;28;20512;-66
2023/01/28 04:14:26;;;;;;;6.23;4.97;;;5.40;99.90;;;;;;5078583;28;20427;-66
2023/01/28 04:16:53;;;;;;;6.00;5.10;;;5.40;99.90;;;;;;5057327;28;20433;-66
2023/01/28 04:19:20;;;;;;;4.87;4.37;;;5.40;99.90;;;;;;5076872;28;20539;-65
2023/01/28 04:21:46;;;;;;;6.87;5.57;;;5.40;99.90;;;;;;5078007;28;20433;-65
2023/01/28 04:24:12;;;;;;;6.93;5.13;;;5.40;99.90;;;;;;5077295;28;20504;-65
2023/01/28 04:26:38;;;;;;;5.23;4.73;;;5.40;99.90;;;;;;5078896;28;20815;-66
2023/01/28 04:29:04;;;;;;;6.77;5.00;;;5.40;99.90;;;;;;5077477;28;20432;-65
2023/01/28 04:31:30;;;;;;;5.10;4.60;;;5.40;99.90;;;;;;5058055;28;20190;-66
2023/01/28 04:33:55;;;;;;;5.73;5.00;;;5.40;99.90;;;;;;5079126;28;20478;-65
2023/01/28 04:36:21;;;;;;;6.27;5.30;;;5.40;99.90;;;;;;5069663;28;21056;-66
2023/01/28 04:38:46;;;;;;;5.70;5.10;;;5.40;99.90;;;;;;5076720;28;20183;-65
2023/01/28 04:41:12;;;;;;;8.53;5.50;;;5.40;99.90;;;;;;5074032;28;20206;-65
2023/01/28 04:43:38;;;;;;;5.60;4.77;;;5.40;99.90;;;;;;5072115;28;20262;-65
2023/01/28 04:46:03;;;;;;;6.20;4.70;;;5.40;99.90;;;;;;5076561;28;20206;-65
2023/01/28 04:48:30;;;;;;;6.50;5.20;;;5.40;99.90;;;;;;5077307;28;20443;-65
2023/01/28 04:50:56;;;;;;;6.37;5.10;;;5.40;99.90;;;;;;5075679;28;20174;-65
2023/01/28 04:53:21;;;;;;;5.93;5.10;;;5.40;99.90;;;;;;5072943;28;20457;-66
2023/01/28 04:55:47;;;;;;;5.80;4.83;;;5.40;99.90;;;;;;5072621;28;20453;-65
2023/01/28 04:58:13;;;;;;;6.47;5.77;;;5.40;99.90;;;;;;5076059;28;20198;-65
2023/01/28 05:00:38;;;;;;;8.23;5.40;;;5.40;99.90;;;;;;5077214;28;20198;-65
2023/01/28 05:03:04;;;;;;;8.40;5.73;;;5.40;99.90;;;;;;5059406;28;20197;-65
2023/01/28 05:05:29;;;;;;;6.30;5.70;;;5.50;99.90;;;;;;5077602;28;20565;-65
2023/01/28 05:07:57;;;;;;;6.67;5.10;;;5.50;99.90;;;;;;5079835;28;21140;-65
2023/01/28 05:10:23;;;;;;;5.60;4.93;;;5.50;99.90;;;;;;5076426;28;20384;-65
2023/01/28 05:12:49;;;;;;;5.63;5.03;;;5.50;99.90;;;;;;5077449;28;21152;-65
2023/01/28 05:15:16;;;;;;;7.00;5.23;;;5.50;99.90;;;;;;5061282;28;20420;-65
2023/01/28 05:17:42;;;;;;;6.40;5.70;;;5.50;99.90;;;;;;5075614;28;20491;-65
2023/01/28 05:20:10;;;;;;;7.20;6.10;;;5.50;99.90;;;;;;5070781;28;20831;-66
2023/01/28 05:22:35;;;;;;;7.57;5.93;;;5.50;99.90;;;;;;5079009;28;20424;-65
2023/01/28 05:25:02;;;;;;;6.50;5.50;;;5.50;99.90;;;;;;5059403;28;20415;-66
2023/01/28 05:27:28;;;;;;;7.20;5.63;;;5.50;99.90;;;;;;5075939;28;20199;-66
2023/01/28 05:29:54;;;;;;;7.33;5.93;;;5.50;99.90;;;;;;5075142;28;20885;-65
2023/01/28 05:32:19;;;;;;;6.43;5.80;;;5.50;99.90;;;;;;5073547;28;20198;-65
2023/01/28 05:34:45;;;;;;;6.03;5.20;;;5.50;99.90;;;;;;5078926;28;20667;-66
2023/01/28 05:37:10;;;;;;;6.63;5.90;;;5.50;99.90;;;;;;5077438;28;20240;-66
2023/01/28 05:39:36;;;;;;;7.07;5.80;;;5.40;99.90;;;;;;5075737;28;20230;-66
2023/01/28 05:42:01;;;;;;;8.23;5.87;;;5.40;99.90;;;;;;5075873;28;20186;-65
2023/01/28 05:44:27;;;;;;;7.70;6.63;;;5.40;99.90;;;;;;5075456;28;20189;-65
2023/01/28 05:46:53;;;;;;;6.67;5.40;;;5.40;99.90;;;;;;5056306;28;20190;-65
2023/01/28 05:49:18;;;;;;;7.03;5.90;;;5.40;99.90;;;;;;5067368;28;20274;-65
2023/01/28 05:51:44;;;;;;;7.43;5.90;;;5.40;99.90;;;;;;5080064;28;20671;-65
2023/01/28 05:54:09;;;;;;;7.90;6.20;;;5.40;99.90;;;;;;5076639;28;20186;-65
2023/01/28 05:56:35;;;;;;;7.63;5.87;;;5.40;99.90;;;;;;5081410;28;20632;-65
2023/01/28 05:59:02;;;;;;;6.90;5.77;;;5.40;99.90;;;;;;5071667;28;20190;-65
2023/01/28 06:01:28;;;;;;;6.33;5.37;;;5.40;99.90;;;;;;5071828;28;20281;-65
2023/01/28 06:03:54;;;;;;;6.80;5.63;;;5.40;99.90;;;;;;5077344;28;20539;-65
2023/01/28 06:06:20;;;;;;;7.30;5.60;;;5.40;99.90;;;;;;5076764;28;20212;-65
2023/01/28 06:08:45;;;;;;;6.07;4.97;;;5.30;99.90;;;;;;5072977;28;20516;-65
2023/01/28 06:11:11;;;;;;;5.90;5.30;;;5.30;99.90;;;;;;5072572;28;20627;-65
2023/01/28 06:13:37;;;;;;;6.20;4.80;;;5.30;99.90;;;;;;5073659;28;20187;-65
2023/01/28 06:16:03;;;;;;;7.77;5.43;;;5.40;99.90;;;;;;5075335;28;20220;-65
2023/01/28 06:18:28;;;;;;;7.00;5.50;;;5.30;99.90;;;;;;5077070;28;20751;-65
2023/01/28 06:20:54;;;;;;;6.00;5.20;;;5.30;99.90;;;;;;5075256;28;20560;-65
2023/01/28 06:23:20;;;;;;;8.83;6.10;;;5.30;99.90;;;;;;5078726;28;20858;-65
2023/01/28 06:25:45;;;;;;;6.93;5.40;;;5.30;99.90;;;;;;5076120;28;20198;-65
2023/01/28 06:28:11;;;;;;;8.37;6.17;;;5.20;99.90;;;;;;5072349;28;20357;-65
2023/01/28 06:30:37;;;;;;;7.10;5.30;;;5.20;99.90;;;;;;5080097;28;20627;-65
2023/01/28 06:33:02;;;;;;;6.40;5.03;;;5.20;99.90;;;;;;5079470;28;20185;-65
2023/01/28 06:35:28;;;;;;;6.70;5.50;;;5.30;99.90;;;;;;5079774;28;20211;-66
2023/01/28 06:37:53;;;;;;;7.43;5.77;;;5.30;99.90;;;;;;5078531;28;20214;-65
2023/01/28 06:40:21;;;;;;;6.90;5.57;;;5.30;99.90;;;;;;5076585;28;20210;-65
2023/01/28 06:42:48;;;;;;;5.20;4.67;;;5.30;99.90;;;;;;5078522;28;20182;-66
2023/01/28 06:45:13;;;;;;;6.50;5.57;;;5.30;99.90;;;;;;5078305;28;20496;-66
2023/01/28 06:47:39;;;;;;;8.23;6.00;;;5.30;99.90;;;;;;5079607;28;20843;-66
2023/01/28 06:50:06;;;;;;;7.30;5.53;;;5.30;99.90;;;;;;5079855;28;20194;-66
2023/01/28 06:52:31;;;;;;;6.60;5.20;;;5.30;99.90;;;;;;5073095;28;20205;-66
2023/01/28 06:54:57;;;;;;;9.00;6.43;;;5.30;99.90;;;;;;5080067;28;20464;-66
2023/01/28 06:57:22;;;;;;;8.73;5.77;;;5.20;99.90;;;;;;5081701;28;20205;-66
2023/01/28 06:59:48;;;;;;;7.13;6.00;;;5.30;99.90;;;;;;5074165;28;20294;-66
2023/01/28 07:02:13;;;;;;;11.10;5.83;;;5.30;99.90;;;;;;5076875;28;20179;-66
2023/01/28 07:04:39;;;;;;;7.00;5.80;;;5.30;99.90;;;;;;5063501;28;20567;-66
2023/01/28 07:07:05;;;;;;;7.03;5.90;;;5.30;99.90;;;;;;5077278;28;20223;-66
2023/01/28 07:09:30;;;;;;;6.23;5.30;;;5.30;99.90;;;;;;5073685;28;20178;-66
2023/01/28 07:11:56;;;;;;;9.10;5.17;;;5.30;99.90;;;;;;5077323;28;20182;-66
2023/01/28 07:14:21;;;;;;;8.07;6.83;;;5.30;99.90;;;;;;5075196;28;20208;-66
2023/01/28 07:16:47;;;;;;;7.20;6.00;;;5.30;99.90;;;;;;5074725;28;20259;-66
2023/01/28 07:19:12;;;;;;;8.00;5.90;;;5.30;99.90;;;;;;5060357;28;20727;-66
2023/01/28 07:21:38;;;;;;;9.37;6.23;;;5.30;99.90;;;;;;5063971;28;20197;-66
2023/01/28 07:24:04;;;;;;;9.10;6.10;;;5.30;99.90;;;;;;5061527;28;20191;-66
2023/01/28 07:26:30;;;;;;;8.80;6.77;;;5.30;99.90;;;;;;5078238;28;20191;-66
2023/01/28 07:28:56;;;;;;;7.20;5.40;;;5.30;99.90;;;;;;5062436;28;20788;-66
2023/01/28 07:31:21;;;;;;;8.67;6.50;;;5.30;99.90;;;;;;5076341;28;20178;-66
2023/01/28 07:33:47;;;;;;;10.07;5.97;;;5.30;99.90;;;;;;5076708;28;20171;-65
2023/01/28 07:36:12;;;;;;;10.37;7.53;;;5.30;99.90;;;;;;5078833;28;20757;-66
2023/01/28 07:38:38;;;;;;;8.30;6.53;;;5.30;99.90;;;;;;5074081;28;20177;-66
2023/01/28 07:41:04;;;;;;;7.70;6.50;;;5.30;99.90;;;;;;5075249;28;20202;-66
2023/01/28 07:43:29;;;;;;;7.90;6.00;;;5.30;99.90;;;;;;5070127;28;20187;-66
2023/01/28 07:45:55;;;;;;;6.57;5.30;;;5.30;99.90;;;;;;5076962;28;20745;-66
2023/01/28 07:48:20;;;;;;;7.20;5.73;;;5.30;99.90;;;;;;5069757;28;20179;-66
2023/01/28 07:50:48;;;;;;;7.77;5.77;;;5.40;99.90;;;;;;5075885;28;20186;-66
2023/01/28 07:53:14;;;;;;;7.40;5.50;;;5.40;99.90;;;;;;5058509;28;20186;-66
2023/01/28 07:55:39;;;;;;;6.73;5.60;;;5.40;99.90;;;;;;5074886;28;20858;-66
2023/01/28 07:58:07;;;;;;;6.33;5.10;;;5.40;99.90;;;;;;5073637;28;20189;-65
2023/01/28 08:00:35;;;;;;;7.30;5.30;;;5.40;99.90;;;;;;5077888;28;20903;-67
2023/01/28 08:03:15;;;;;;;8.57;7.13;;;5.40;99.90;;;;;;5056919;28;20449;-67
2023/01/28 08:05:50;;;;;;;7.10;5.70;;;5.30;99.90;;;;;;5053025;28;20451;-66
2023/01/28 08:08:16;;;;;;;9.20;6.60;;;5.30;99.90;;;;;;5061068;28;20435;-66
2023/01/28 08:10:42;;;;;;;7.13;6.10;;;5.30;99.90;;;;;;5059194;28;20428;-66
2023/01/28 08:13:09;;;;;;;8.03;6.00;;;5.30;99.90;;;;;;5075529;28;20589;-66
2023/01/28 08:15:35;;;;;;;7.57;6.33;;;5.30;99.90;;;;;;5075680;28;20938;-67
2023/01/28 08:18:02;;;;;;;7.37;5.57;;;5.30;99.90;;;;;;5067671;28;20490;-66
2023/01/28 08:20:28;;;;;;;8.00;7.13;;;5.30;99.90;;;;;;5075899;28;20456;-66
2023/01/28 08:23:13;;;;;;;10.93;7.80;;;5.30;99.90;;;;;;5061865;28;20430;-66
2023/01/28 08:25:39;;;;;;;10.03;7.63;;;5.30;99.90;;;;;;5079992;28;20401;-66
2023/01/28 08:28:05;;;;;;;9.70;7.07;;;5.30;99.90;;;;;;5079543;28;20408;-66
2023/01/28 08:30:31;;;;;;;10.93;6.57;;;5.30;99.90;;;;;;5077708;28;20528;-66
2023/01/28 08:32:58;;;;;;;7.70;5.63;;;5.30;99.90;;;;;;5056712;28;20472;-66
2023/01/28 08:35:27;;;;;;;7.77;6.53;;;5.30;99.90;;;;;;5058669;28;20428;-66
2023/01/28 08:37:53;;;;;;;9.40;6.13;;;5.30;99.90;;;;;;5078051;28;20498;-67
2023/01/28 08:40:19;;;;;;;10.10;7.20;;;5.30;99.90;;;;;;5074950;28;20553;-67
2023/01/28 08:42:49;;;;;;;10.07;8.13;;;5.30;99.90;;;;;;5080332;28;20413;-67
2023/01/28 08:45:15;;;;;;;10.20;7.73;;;5.30;99.90;;;;;;5079250;28;20468;-67
2023/01/28 08:47:51;;;;;;;8.10;6.70;;;5.40;99.90;;;;;;5074225;28;21475;-67
2023/01/28 08:50:18;;;;;;;8.43;5.90;;;5.40;99.90;;;;;;5075388;28;20424;-67
2023/01/28 08:52:45;;;;;;;8.00;6.10;;;5.40;99.90;;;;;;5076643;28;20473;-67
2023/01/28 08:55:12;;;;;;;6.93;6.13;;;5.50;99.90;;;;;;5073993;28;20432;-67
2023/01/28 08:57:38;;;;;;;7.33;6.30;;;5.60;99.90;;;;;;5075381;28;20443;-67
2023/01/28 09:00:05;;;;;;;7.87;6.60;;;5.60;99.90;;;;;;5069486;28;20805;-67
2023/01/28 09:02:30;;;;;;;7.17;5.80;;;5.70;99.90;;;;;;5075423;28;20435;-67
2023/01/28 09:04:56;;;;;;;7.43;5.60;;;5.70;99.90;;;;;;5074015;28;20837;-67
2023/01/28 09:07:21;;;;;;;11.93;6.37;;;5.70;99.90;;;;;;5076322;28;20218;-66
2023/01/28 09:09:47;;;;;;;8.50;6.27;;;5.80;99.90;;;;;;5074676;28;20182;-67
2023/01/28 09:12:12;;;;;;;8.17;6.17;;;5.80;99.90;;;;;;5074693;28;20182;-67
2023/01/28 09:14:38;;;;;;;7.60;6.73;;;5.70;99.90;;;;;;5079641;28;20659;-67
2023/01/28 09:17:04;;;;;;;8.13;7.13;;;5.80;99.90;;;;;;5057930;28;20726;-67
2023/01/28 09:19:30;;;;;;;9.30;6.80;;;5.70;99.90;;;;;;5071953;28;20182;-67
2023/01/28 09:21:55;;;;;;;11.63;8.10;;;5.70;99.90;;;;;;5078113;28;20432;-67
2023/01/28 09:24:21;;;;;;;9.80;8.17;;;5.80;99.90;;;;;;5078259;28;20174;-67
2023/01/28 09:26:50;;;;;;;8.90;7.77;;;5.80;99.90;;;;;;5078588;28;20202;-67
2023/01/28 09:29:16;;;;;;;10.67;8.00;;;5.80;99.90;;;;;;5077778;28;20252;-67
2023/01/28 09:31:41;;;;;;;8.43;7.63;;;5.80;99.90;;;;;;5075801;28;20587;-67
2023/01/28 09:34:08;;;;;;;8.97;7.17;;;5.80;99.90;;;;;;5076300;28;20257;-67
2023/01/28 09:36:34;;;;;;;8.70;6.73;;;5.90;99.90;;;;;;5073475;28;20202;-67
2023/01/28 09:39:00;;;;;;;8.90;7.20;;;5.90;99.90;;;;;;5077821;28;20420;-67
2023/01/28 09:41:54;;;;;;;10.40;6.37;;;5.90;99.90;;;;;;5068426;28;20496;-67
2023/01/28 09:44:54;;;;;;;10.03;6.97;;;6.00;99.90;;;;;;5072611;28;20519;-66
2023/01/28 09:47:40;;;;;;;11.67;8.20;;;6.00;99.90;;;;;;5071394;28;21115;-67
2023/01/28 09:50:13;;;;;;;9.83;7.50;;;6.10;99.90;;;;;;5077867;28;20576;-67
2023/01/28 09:52:41;;;;;;;11.77;7.33;;;6.10;99.90;;;;;;5073818;28;20432;-65
2023/01/28 09:55:21;;;;;;;8.93;7.13;;;6.10;99.90;;;;;;5074553;28;20432;-65
2023/01/28 09:57:54;;;;;;;12.43;7.87;;;6.10;99.90;;;;;;5076797;28;20523;-65
2023/01/28 10:00:46;;;;;;;11.23;6.90;;;6.10;99.90;;;;;;5057563;28;20498;-66
2023/01/28 10:03:30;;;;;;;9.73;7.20;;;6.10;99.90;;;;;;5073132;28;20469;-66
2023/01/28 10:06:13;;;;;;;7.70;6.37;;;6.10;99.90;;;;;;5073178;28;20851;-66
2023/01/28 10:09:04;;;;;;;8.77;6.80;;;6.10;99.90;;;;;;5075568;28;20905;-65
2023/01/28 10:11:48;;;;;;;9.43;7.07;;;6.10;99.90;;;;;;5070183;28;20440;-66
2023/01/28 10:14:29;;;;;;;9.97;6.53;;;6.10;99.90;;;;;;5075947;28;20440;-65
2023/01/28 10:17:27;;;;;;;8.50;6.27;;;6.10;99.90;;;;;;5071909;28;20457;-65
2023/01/28 10:20:00;;;;;;;7.40;6.60;;;6.10;99.90;;;;;;5068264;28;20577;-66
2023/01/28 10:22:31;;;;;;;8.47;6.93;;;6.10;99.90;;;;;;5073809;28;20503;-66
2023/01/28 10:25:05;;;;;;;8.00;7.00;;;6.10;99.90;;;;;;5078446;28;20424;-67
2023/01/28 10:27:32;;;;;;;8.50;5.90;;;6.20;99.90;;;;;;5074655;28;20455;-66
2023/01/28 10:30:18;;;;;;;9.20;6.57;;;6.20;99.90;;;;;;5078237;28;20439;-67
2023/01/28 10:33:02;;;;;;;7.90;6.03;;;6.20;99.90;;;;;;5069201;28;20415;-65
2023/01/28 10:35:32;;;;;;;8.53;6.50;;;6.20;99.90;;;;;;5071423;28;20945;-65
2023/01/28 10:38:01;;;;;;;17.73;9.50;;;6.20;99.90;;;;;;5074715;28;20422;-65
2023/01/28 10:40:28;;;;;;;8.87;7.17;;;6.20;99.90;;;;;;5078710;28;21082;-66
2023/01/28 10:42:53;;;;;;;9.50;6.90;;;6.20;99.90;;;;;;5077047;28;20480;-65
2023/01/28 10:45:35;;;;;;;10.00;7.47;;;6.10;99.90;;;;;;5073783;28;20486;-66
2023/01/28 10:48:20;;;;;;;18.97;9.10;;;6.00;99.90;;;;;;5075567;28;20175;-65
2023/01/28 10:51:00;;;;;;;17.73;8.10;;;6.00;99.90;;;;;;5071175;28;20487;-66
2023/01/28 10:53:40;;;;;;;12.83;7.97;;;6.00;99.90;;;;;;5072098;28;20437;-66
2023/01/28 10:56:13;;;;;;;8.40;6.30;;;6.00;99.90;;;;;;5059773;28;20682;-66
2023/01/28 10:58:59;;;;;;;7.33;6.37;;;6.00;99.90;;;;;;5075650;28;21740;-65
2023/01/28 11:01:37;;;;;;;8.00;6.93;;;5.90;99.90;;;;;;5075688;28;20471;-67
2023/01/28 11:04:03;;;;;;;9.73;6.03;;;5.90;99.90;;;;;;5056948;28;20945;-67
2023/01/28 11:06:29;;;;;;;10.20;8.07;;;5.90;99.90;;;;;;5074899;28;20586;-67
2023/01/28 11:08:55;;;;;;;11.80;8.30;;;5.90;99.90;;;;;;5076031;28;20183;-66
2023/01/28 11:11:28;;;;;;;9.93;7.30;;;5.90;99.90;;;;;;5075164;28;20444;-66
2023/01/28 11:13:57;;;;;;;9.37;7.50;;;5.90;99.90;;;;;;5075558;28;20460;-65
2023/01/28 11:16:24;;;;;;;8.93;6.40;;;6.00;99.90;;;;;;5074775;28;20454;-65
2023/01/28 11:18:51;;;;;;;10.03;8.37;;;5.90;99.90;;;;;;5075290;28;20831;-65
2023/01/28 11:21:26;;;;;;;9.93;8.10;;;5.90;99.90;;;;;;5076784;28;20468;-66
2023/01/28 11:24:01;;;;;;;12.13;8.73;;;6.00;99.90;;;;;;5079024;28;20428;-66
2023/01/28 11:26:33;;;;;;;8.77;7.33;;;6.00;99.90;;;;;;5072235;28;20952;-65
2023/01/28 11:28:59;;;;;;;11.37;7.30;;;6.00;99.90;;;;;;5058124;28;20428;-65
2023/01/28 11:31:26;;;;;;;7.37;6.20;;;6.10;99.90;;;;;;5076473;28;20438;-66
2023/01/28 11:33:58;;;;;;;8.73;7.00;;;6.10;99.90;;;;;;5074465;28;20541;-66
2023/01/28 11:36:31;;;;;;;9.47;7.40;;;6.10;99.90;;;;;;5074019;28;20440;-66
2023/01/28 11:39:27;;;;;;;9.80;7.53;;;6.20;99.90;;;;;;5069582;28;20512;-66
2023/01/28 11:41:53;;;;;;;8.53;6.17;;;6.10;99.90;;;;;;5072134;28;20456;-66
2023/01/28 11:44:26;;;;;;;11.00;7.13;;;6.20;99.90;;;;;;5076262;28;20431;-66
2023/01/28 11:47:06;;;;;;;10.20;8.20;;;6.20;99.90;;;;;;5077458;28;20471;-66
2023/01/28 11:49:31;;;;;;;8.20;6.30;;;6.20;99.90;;;;;;5077205;28;20408;-66
2023/01/28 11:52:30;;;;;;;7.90;6.40;;;6.20;99.90;;;;;;5077583;28;20862;-67
2023/01/28 11:55:20;;;;;;;7.20;6.30;;;6.20;99.90;;;;;;5076368;28;20186;-65
2023/01/28 11:58:04;;;;;;;10.50;6.93;;;6.20;99.90;;;;;;5076906;28;20436;-66
2023/01/28 12:00:41;;;;;;;9.80;7.27;;;6.30;99.90;;;;;;5076078;28;20938;-66
2023/01/28 12:03:26;;;;;;;8.80;7.27;;;6.30;99.90;;;;;;5075541;28;20420;-66
2023/01/28 12:05:56;;;;;;;6.90;5.73;;;6.30;99.90;;;;;;5074392;28;20478;-67
2023/01/28 12:08:37;;;;;;;8.47;6.30;;;6.30;99.90;;;;;;5079209;28;20413;-67
2023/01/28 12:11:18;;;;;;;11.07;8.13;;;6.20;99.90;;;;;;5073629;28;20444;-66
2023/01/28 12:14:10;;;;;;;9.90;7.00;;;6.20;99.90;;;;;;5074638;28;20785;-67
2023/01/28 12:16:46;;;;;;;7.23;5.90;;;6.30;99.90;;;;;;5076092;28;20432;-67
2023/01/28 12:19:30;;;;;;;7.20;5.80;;;6.40;99.90;;;;;;5075797;28;20443;-66
2023/01/28 12:22:12;;;;;;;6.80;5.47;;;6.30;99.90;;;;;;5076869;28;20440;-66
2023/01/28 12:25:14;;;;;;;8.57;5.80;;;6.40;99.90;;;;;;5076690;28;20410;-67
2023/01/28 12:28:00;;;;;;;7.70;6.07;;;6.40;99.90;;;;;;5076563;28;20443;-67
2023/01/28 12:30:34;;;;;;;6.43;5.27;;;6.40;99.90;;;;;;5075050;28;20413;-67
2023/01/28 12:33:22;;;;;;;7.03;5.63;;;6.40;99.90;;;;;;5074395;28;20431;-67
2023/01/28 12:36:10;;;;;;;9.37;6.50;;;6.30;99.90;;;;;;5079655;28;20856;-67
2023/01/28 12:38:50;;;;;;;9.00;6.30;;;6.30;99.90;;;;;;5077567;28;20452;-66
2023/01/28 12:41:19;;;;;;;8.20;5.90;;;6.30;99.90;;;;;;5060112;28;20800;-66
2023/01/28 12:44:21;;;;;;;9.77;6.63;;;6.30;99.90;;;;;;5075454;28;20982;-66
2023/01/28 12:46:58;;;;;;;9.73;6.90;;;6.30;99.90;;;;;;5063718;28;20450;-65
2023/01/28 12:49:38;;;;;;;8.13;5.70;;;6.40;99.90;;;;;;5071267;28;20962;-65
2023/01/28 12:52:15;;;;;;;8.73;5.93;;;6.30;99.90;;;;;;5075496;28;20467;-66
2023/01/28 12:55:10;;;;;;;8.00;5.90;;;6.30;99.90;;;;;;5078044;28;20520;-67
2023/01/28 12:57:36;;;;;;;7.80;6.00;;;6.30;99.90;;;;;;5058642;28;20498;-67
2023/01/28 13:00:54;;;;;;;8.57;6.80;;;6.40;99.90;;;;;;5075337;28;20530;-65
2023/01/28 13:03:48;;;;;;;11.30;6.90;;;6.40;99.90;;;;;;5059836;28;20432;-65
2023/01/28 13:06:26;;;;;;;8.27;5.83;;;6.50;99.90;;;;;;5060197;28;20944;-65
2023/01/28 13:09:20;;;;;;;8.90;7.53;;;6.60;99.90;;;;;;5058764;28;20950;-65
2023/01/28 13:11:50;;;;;;;11.13;6.53;;;6.60;99.90;;;;;;5073067;28;20436;-65
2023/01/28 13:14:18;;;;;;;7.20;5.17;;;6.70;99.90;;;;;;5075463;28;20417;-65
2023/01/28 13:16:44;;;;;;;6.87;5.50;;;6.70;99.90;;;;;;5076265;28;21241;-65
2023/01/28 13:19:18;;;;;;;8.83;5.90;;;6.70;99.90;;;;;;5078240;28;21941;-65
2023/01/28 13:21:45;;;;;;;6.93;5.07;;;6.80;99.90;;;;;;5075209;28;20206;-65
2023/01/28 13:24:13;;;;;;;7.73;5.73;;;6.80;99.90;;;;;;5079860;28;20778;-66
2023/01/28 13:26:46;;;;;;;8.93;6.43;;;6.80;99.90;;;;;;5075434;28;20448;-65
2023/01/28 13:29:20;;;;;;;6.80;5.20;;;6.80;99.90;;;;;;5079151;28;20404;-67
2023/01/28 13:31:52;;;;;;;6.00;5.23;;;6.80;99.90;;;;;;5071499;28;20503;-66
2023/01/28 13:34:39;;;;;;;8.00;5.20;;;6.80;99.90;;;;;;5074336;28;20424;-66
2023/01/28 13:37:27;;;;;;;10.93;5.23;;;6.80;99.90;;;;;;5077421;28;20452;-66
2023/01/28 13:40:05;;;;;;;7.07;4.90;;;6.70;99.90;;;;;;5075805;28;20558;-65
2023/01/28 13:42:30;;;;;;;6.00;4.83;;;6.70;99.90;;;;;;5055785;28;20428;-66
2023/01/28 13:45:16;;;;;;;7.10;5.07;;;6.70;99.90;;;;;;5059546;28;20448;-66
2023/01/28 13:48:00;;;;;;;8.07;5.30;;;6.60;99.90;;;;;;5054878;28;20178;-66